Portada
METAR-TAF:

METAR-TAF

Aeropuertos :

Base Aérea de Alcantarilla

Murcia, España

latitud: 37-57N, longitud: 001-14W, altitud: 75 m

Observación

El informe se hizo hace 11 horas y 36 minutos, a las 18:00 UTC
Viento 7 kt del suroeste, variando entre sur-suroeste y oeste
Temperatura 29°C
Humedad 40%
Presión 1020 hPa
Visibilidad 10 km o más
sin nubes por debajo de 1500 m y sin presencia de cumulonimbus.

METAR: LERI 231800Z 23007KT 200V260 CAVOK 29/14 Q1020 NOSIG

Hora: 07:36 (05:36 UTC)

Pronóstico

El informe se hizo hace 3 horas y 36 minutos, a las 02:00 UTC
Pronóstico válido del 24 a las 03 UTC al 24 a las 12 UTC
Viento 2 kt con dirección variable
Visibilidad 10 km o más
sin nubes por debajo de 1500 m y sin presencia de cumulonimbus.

TAF: LERI 240200Z 2403/2412 VRB02KT CAVOK

Observaciones y pronósticos meteorológicos de más de 4000 aeropuertos (mensajes METAR y TAF).

Los puntos amarillos y rojos representan las estaciones disponibles.

Ponga el ratón en el punto deseado para ver el nombre de la estación.

Haga clic para ver las observaciones y los pronósticos meteorológicos.

Para cambiar el mapa : haga clic en los botones verdes con una cruz de color negro para hacer un zoom, en el botón verde con un guión para alejar o en las flechas verdes para mapas adyacentes.


METAR-TAF: